Time;durP1;ratioP1;P1;durP2;ratioP2;P2;SDS_P1;SDS_P2;PMS_P1;PMS_P2;Temp;Humidity;BMP_temperature;BMP_pressure;BME280_temperature;BME280_humidity;BME280_pressure;Samples;Min_cycle;Max_cycle;Signal;HPM_P1;HPM_P2
2023/03/10 00:00:30;;;;;;;2.65;2.45;;;19.50;49.40;;;;;;5016736;28;20183;-70
2023/03/10 00:02:56;;;;;;;2.47;2.20;;;19.50;49.40;;;;;;5019004;28;20220;-70
2023/03/10 00:05:22;;;;;;;2.50;2.30;;;19.50;49.50;;;;;;5055781;28;20189;-69
2023/03/10 00:07:49;;;;;;;2.63;2.42;;;19.60;49.50;;;;;;5023341;28;20190;-70
2023/03/10 00:10:16;;;;;;;2.53;2.33;;;19.50;49.50;;;;;;5039369;28;20205;-70
2023/03/10 00:12:42;;;;;;;3.08;2.78;;;19.50;49.40;;;;;;5016060;28;20214;-70
2023/03/10 00:15:10;;;;;;;2.40;2.20;;;19.60;49.50;;;;;;5020100;28;20197;-70
2023/03/10 00:17:36;;;;;;;2.35;2.15;;;19.50;49.50;;;;;;5039383;28;20226;-70
2023/03/10 00:20:06;;;;;;;3.45;2.35;;;19.50;49.50;;;;;;5022568;28;20190;-70
2023/03/10 00:22:34;;;;;;;3.63;2.30;;;19.50;49.50;;;;;;5007467;28;20203;-70
2023/03/10 00:25:00;;;;;;;2.97;2.45;;;19.50;49.40;;;;;;5007112;28;20187;-70
2023/03/10 00:27:25;;;;;;;2.30;2.10;;;19.50;50.10;;;;;;5020048;28;20194;-70
2023/03/10 00:29:52;;;;;;;2.60;2.35;;;19.50;49.40;;;;;;5031540;28;20190;-70
2023/03/10 00:32:18;;;;;;;2.38;2.00;;;19.50;49.40;;;;;;5022500;28;20206;-70
2023/03/10 00:34:44;;;;;;;2.53;2.33;;;19.50;49.40;;;;;;5027578;28;20202;-70
2023/03/10 00:37:10;;;;;;;2.38;2.17;;;19.50;49.40;;;;;;5005915;28;20183;-70
2023/03/10 00:39:36;;;;;;;3.20;2.33;;;19.50;49.40;;;;;;5031035;28;20222;-70
2023/03/10 00:42:03;;;;;;;2.45;1.92;;;19.50;49.40;;;;;;5036337;28;20233;-70
2023/03/10 00:44:28;;;;;;;2.40;2.20;;;19.50;49.40;;;;;;5019256;28;20179;-69
2023/03/10 00:46:54;;;;;;;2.58;2.35;;;19.50;49.40;;;;;;5018073;28;20679;-70
2023/03/10 00:49:20;;;;;;;2.47;2.22;;;19.50;49.40;;;;;;5017106;28;20190;-70
2023/03/10 00:51:46;;;;;;;2.53;2.20;;;19.50;49.40;;;;;;5038978;28;20763;-70
2023/03/10 00:54:12;;;;;;;4.20;1.85;;;19.50;49.40;;;;;;5031118;28;20269;-70
2023/03/10 00:56:38;;;;;;;2.20;1.90;;;19.50;49.40;;;;;;5022730;28;20201;-70
2023/03/10 00:59:05;;;;;;;2.30;1.92;;;19.60;49.50;;;;;;5055210;28;20217;-70
2023/03/10 01:01:34;;;;;;;2.30;2.10;;;19.50;49.40;;;;;;5043762;22;20214;-70
2023/03/10 01:04:05;;;;;;;2.33;2.05;;;19.50;49.40;;;;;;5009208;28;20203;-70
2023/03/10 01:06:33;;;;;;;2.38;2.17;;;19.50;49.40;;;;;;5001579;28;20188;-69
2023/03/10 01:08:59;;;;;;;2.67;2.13;;;19.50;49.50;;;;;;5009314;28;20180;-70
2023/03/10 01:11:28;;;;;;;3.05;2.20;;;19.50;49.50;;;;;;5016701;28;20222;-70
2023/03/10 01:13:58;;;;;;;2.20;1.90;;;19.50;49.50;;;;;;5010130;28;20558;-70
2023/03/10 01:16:24;;;;;;;2.28;2.08;;;19.60;49.50;;;;;;5016307;28;20198;-70
2023/03/10 01:18:50;;;;;;;1.85;1.75;;;19.50;49.50;;;;;;5011497;28;20230;-70
2023/03/10 01:21:29;;;;;;;2.30;1.80;;;19.50;49.40;;;;;;5006957;28;20215;-70
2023/03/10 01:23:55;;;;;;;3.30;2.03;;;19.50;49.50;;;;;;5012438;28;20191;-70
2023/03/10 01:26:21;;;;;;;2.10;1.83;;;19.50;49.40;;;;;;4989860;28;20198;-70
2023/03/10 01:28:48;;;;;;;2.17;1.98;;;19.50;49.40;;;;;;5005505;28;20180;-70
2023/03/10 01:31:15;;;;;;;2.10;1.90;;;19.50;49.40;;;;;;5016624;28;20175;-70
2023/03/10 01:33:42;;;;;;;3.30;1.90;;;19.50;49.50;;;;;;5016476;28;20211;-70
2023/03/10 01:36:15;;;;;;;2.40;1.90;;;19.60;49.50;;;;;;5000190;28;20187;-70
2023/03/10 01:38:43;;;;;;;2.30;2.00;;;19.60;50.20;;;;;;5000426;28;20593;-70
2023/03/10 01:41:10;;;;;;;2.70;2.10;;;19.50;49.50;;;;;;5016458;28;20182;-70
2023/03/10 01:43:42;;;;;;;2.10;1.90;;;19.60;49.50;;;;;;5008246;28;20203;-70
2023/03/10 01:46:26;;;;;;;2.22;1.77;;;19.50;49.50;;;;;;5008130;28;20180;-70
2023/03/10 01:48:59;;;;;;;4.22;2.05;;;19.60;49.50;;;;;;5011177;28;20190;-70
2023/03/10 01:51:28;;;;;;;2.65;2.08;;;19.50;49.50;;;;;;5016078;28;20195;-70
2023/03/10 01:53:54;;;;;;;2.63;1.90;;;19.60;49.60;;;;;;5030104;28;20201;-70
2023/03/10 01:56:20;;;;;;;2.30;1.98;;;19.50;49.50;;;;;;5000109;28;20590;-70
2023/03/10 01:58:47;;;;;;;2.45;2.17;;;19.50;49.50;;;;;;5016248;28;20218;-70
2023/03/10 02:01:15;;;;;;;2.30;1.80;;;19.50;49.50;;;;;;4984127;28;20188;-70
2023/03/10 02:03:55;;;;;;;1.50;1.40;;;19.50;49.50;;;;;;5028909;28;20287;-70
2023/03/10 02:06:22;;;;;;;2.50;2.00;;;19.50;49.50;;;;;;4988644;28;20187;-70
2023/03/10 02:08:57;;;;;;;1.80;1.70;;;19.50;49.50;;;;;;5011089;28;20427;-70
2023/03/10 02:11:23;;;;;;;2.00;1.80;;;19.50;49.50;;;;;;4999871;28;20196;-70
2023/03/10 02:13:51;;;;;;;1.70;1.55;;;19.50;49.50;;;;;;5010434;28;20191;-70
2023/03/10 02:16:17;;;;;;;1.92;1.75;;;19.60;49.60;;;;;;5004742;28;20564;-70
2023/03/10 02:18:46;;;;;;;1.80;1.70;;;19.60;49.60;;;;;;5009845;28;20207;-70
2023/03/10 02:21:53;;;;;;;2.03;1.58;;;19.50;49.50;;;;;;5005625;28;20186;-70
2023/03/10 02:24:48;;;;;;;1.92;1.77;;;19.50;49.60;;;;;;4989955;28;20182;-70
2023/03/10 02:27:27;;;;;;;2.20;2.00;;;19.60;49.60;;;;;;5007581;28;20581;-70
2023/03/10 02:30:02;;;;;;;1.60;1.50;;;19.50;49.50;;;;;;4985498;28;20227;-69
2023/03/10 02:32:38;;;;;;;2.10;1.80;;;19.50;49.60;;;;;;5012801;28;20294;-70
2023/03/10 02:35:05;;;;;;;1.58;1.48;;;19.50;49.50;;;;;;4996166;28;20164;-70
2023/03/10 02:37:35;;;;;;;1.60;1.50;;;19.50;49.60;;;;;;5007538;28;20274;-70
2023/03/10 02:40:28;;;;;;;1.63;1.50;;;19.50;49.60;;;;;;4999620;28;20202;-70
2023/03/10 02:42:55;;;;;;;2.33;1.67;;;19.50;49.60;;;;;;5003425;28;20580;-70
2023/03/10 02:45:21;;;;;;;1.60;1.50;;;19.50;49.60;;;;;;4991385;28;20275;-70
2023/03/10 02:47:48;;;;;;;1.50;1.40;;;19.50;49.60;;;;;;5001950;28;20188;-71
2023/03/10 02:50:16;;;;;;;2.13;1.40;;;19.50;49.60;;;;;;5010119;28;20207;-70
2023/03/10 02:53:10;;;;;;;1.67;1.58;;;19.60;49.70;;;;;;5028153;28;20211;-70
2023/03/10 02:55:36;;;;;;;1.77;1.60;;;19.50;49.60;;;;;;4995797;28;20215;-70
2023/03/10 02:58:02;;;;;;;1.42;1.33;;;19.60;49.70;;;;;;5011100;28;20254;-70
2023/03/10 03:00:30;;;;;;;1.98;1.63;;;19.50;49.70;;;;;;5015289;28;20186;-70
2023/03/10 03:02:56;;;;;;;1.77;1.67;;;19.50;49.70;;;;;;5003604;28;20303;-70
2023/03/10 03:05:23;;;;;;;1.50;1.40;;;19.50;49.80;;;;;;4997452;28;20259;-70
2023/03/10 03:07:49;;;;;;;1.30;1.20;;;19.60;49.80;;;;;;5009600;28;20187;-70
2023/03/10 03:10:15;;;;;;;1.75;1.60;;;19.50;49.80;;;;;;5004754;28;20267;-70
2023/03/10 03:12:41;;;;;;;1.40;1.25;;;19.50;49.70;;;;;;5006809;28;20207;-70
2023/03/10 03:15:07;;;;;;;1.52;1.40;;;19.50;49.80;;;;;;4983316;28;20190;-70
2023/03/10 03:17:33;;;;;;;1.52;1.40;;;19.50;49.70;;;;;;5003498;28;20187;-69
2023/03/10 03:19:59;;;;;;;1.75;1.65;;;19.50;49.80;;;;;;5010240;28;20186;-70
2023/03/10 03:22:25;;;;;;;1.40;1.30;;;19.50;49.80;;;;;;5014785;28;20285;-70
2023/03/10 03:24:51;;;;;;;1.63;1.48;;;19.50;49.80;;;;;;5006840;28;20677;-70
2023/03/10 03:27:17;;;;;;;1.67;1.58;;;19.50;49.80;;;;;;5014874;28;20187;-70
2023/03/10 03:29:44;;;;;;;1.48;1.30;;;19.50;49.80;;;;;;4998628;28;20187;-70
2023/03/10 03:32:10;;;;;;;2.08;1.40;;;19.50;49.80;;;;;;4998399;28;20234;-71
2023/03/10 03:34:36;;;;;;;1.50;1.40;;;19.60;49.90;;;;;;4985304;28;20290;-70
2023/03/10 03:37:05;;;;;;;1.40;1.30;;;19.50;49.80;;;;;;5010438;28;20190;-70
2023/03/10 03:39:35;;;;;;;1.45;1.35;;;19.50;49.80;;;;;;4987239;28;20210;-70
2023/03/10 03:42:05;;;;;;;1.27;1.17;;;19.50;49.90;;;;;;5007060;28;20203;-70
2023/03/10 03:44:39;;;;;;;1.40;1.30;;;19.50;49.90;;;;;;5027750;28;20549;-70
2023/03/10 03:47:07;;;;;;;1.38;1.27;;;19.50;49.90;;;;;;5006908;28;20182;-70
2023/03/10 03:49:34;;;;;;;1.30;1.20;;;19.50;49.90;;;;;;5006118;28;20269;-70
2023/03/10 03:52:00;;;;;;;1.60;1.50;;;19.50;49.90;;;;;;5006169;28;20207;-70
2023/03/10 03:54:26;;;;;;;1.38;1.27;;;19.50;49.90;;;;;;5029570;28;20287;-70
2023/03/10 03:56:52;;;;;;;1.20;1.10;;;19.50;49.90;;;;;;5009130;28;20184;-70
2023/03/10 03:59:18;;;;;;;1.27;1.17;;;19.50;49.90;;;;;;5028547;28;20209;-70
2023/03/10 04:01:44;;;;;;;1.73;1.20;;;19.50;49.90;;;;;;5007047;28;20710;-70
2023/03/10 04:04:10;;;;;;;1.35;1.25;;;19.50;49.90;;;;;;4982496;28;20205;-70
2023/03/10 04:06:36;;;;;;;1.40;1.08;;;19.50;50.00;;;;;;4997614;28;20187;-70
2023/03/10 04:09:03;;;;;;;1.42;1.17;;;19.50;50.00;;;;;;4987134;28;20179;-70
2023/03/10 04:11:31;;;;;;;1.40;1.30;;;19.50;50.00;;;;;;5006747;28;20643;-70
2023/03/10 04:13:57;;;;;;;1.20;1.02;;;19.50;50.00;;;;;;5030233;28;20249;-69
2023/03/10 04:16:23;;;;;;;1.17;1.08;;;19.50;50.00;;;;;;4997555;28;20188;-71
2023/03/10 04:18:49;;;;;;;1.67;1.58;;;19.50;50.00;;;;;;4985762;28;20711;-70
2023/03/10 04:21:16;;;;;;;1.25;1.15;;;19.50;50.00;;;;;;5007828;28;20623;-70
2023/03/10 04:23:42;;;;;;;2.05;1.33;;;19.50;50.00;;;;;;5031840;28;20274;-70
2023/03/10 04:26:13;;;;;;;0.98;0.98;;;19.50;50.00;;;;;;5006220;28;20192;-70
2023/03/10 04:28:39;;;;;;;1.33;1.20;;;19.50;50.10;;;;;;5006212;28;20183;-70
2023/03/10 04:31:15;;;;;;;0.80;0.80;;;19.50;50.10;;;;;;5006107;28;20180;-70
2023/03/10 04:33:41;;;;;;;1.10;1.00;;;19.50;50.10;;;;;;5003301;28;20203;-70
2023/03/10 04:36:07;;;;;;;1.13;0.90;;;19.50;50.10;;;;;;4986653;28;20187;-70
2023/03/10 04:38:33;;;;;;;1.88;1.20;;;19.50;50.10;;;;;;5013265;28;20214;-70
2023/03/10 04:41:00;;;;;;;0.95;0.95;;;19.50;50.10;;;;;;5014105;28;20237;-70
2023/03/10 04:43:32;;;;;;;1.23;1.13;;;19.50;50.10;;;;;;5020458;28;20196;-70
2023/03/10 04:45:58;;;;;;;1.05;0.90;;;19.50;50.70;;;;;;5004156;28;20175;-70
2023/03/10 04:48:25;;;;;;;1.27;1.17;;;19.50;50.10;;;;;;5009756;28;20210;-70
2023/03/10 04:51:04;;;;;;;1.10;1.00;;;19.50;50.10;;;;;;5007449;28;20271;-70
2023/03/10 04:53:35;;;;;;;1.00;0.98;;;19.50;50.10;;;;;;5001080;28;20203;-70
2023/03/10 04:56:05;;;;;;;1.02;1.00;;;19.50;50.10;;;;;;5001260;28;20187;-68
2023/03/10 04:58:33;;;;;;;0.80;0.80;;;19.50;50.20;;;;;;5023213;28;20242;-68
2023/03/10 05:01:00;;;;;;;1.50;0.95;;;19.50;50.20;;;;;;5008845;28;20271;-68
2023/03/10 05:03:26;;;;;;;1.10;0.90;;;19.50;50.20;;;;;;4990959;28;20709;-68
2023/03/10 05:05:52;;;;;;;0.80;0.80;;;19.50;50.20;;;;;;5009174;28;20183;-68
2023/03/10 05:08:18;;;;;;;1.00;1.00;;;19.50;50.20;;;;;;5000086;28;20179;-68
2023/03/10 05:10:46;;;;;;;1.20;1.10;;;19.50;50.20;;;;;;4993203;28;20604;-68
2023/03/10 05:13:13;;;;;;;1.20;1.02;;;19.50;50.20;;;;;;4984569;28;20236;-68
2023/03/10 05:15:41;;;;;;;0.93;0.88;;;19.50;50.20;;;;;;4992069;28;20210;-68
2023/03/10 05:18:11;;;;;;;0.95;0.90;;;19.40;50.10;;;;;;5000112;28;20215;-68
2023/03/10 05:20:37;;;;;;;1.10;1.00;;;19.40;50.10;;;;;;5000039;28;20199;-67
2023/03/10 05:23:04;;;;;;;1.08;0.98;;;19.40;50.10;;;;;;4991962;28;20230;-69
2023/03/10 05:25:30;;;;;;;1.20;1.10;;;19.50;50.20;;;;;;5014527;28;20211;-69
2023/03/10 05:27:56;;;;;;;0.88;0.88;;;19.50;50.20;;;;;;5016090;28;20270;-68
2023/03/10 05:30:22;;;;;;;1.30;1.20;;;19.50;50.30;;;;;;5032064;28;20273;-69
2023/03/10 05:32:50;;;;;;;0.93;0.93;;;19.50;50.20;;;;;;4993004;28;20231;-68
2023/03/10 05:35:15;;;;;;;0.85;0.85;;;19.50;50.30;;;;;;5016503;28;20221;-68
2023/03/10 05:37:43;;;;;;;1.23;1.10;;;19.50;50.30;;;;;;5008658;28;20250;-68
2023/03/10 05:40:18;;;;;;;1.30;1.10;;;19.40;50.10;;;;;;5016807;28;20254;-68
2023/03/10 05:42:46;;;;;;;1.35;1.00;;;19.50;50.30;;;;;;5008531;28;20209;-68
2023/03/10 05:45:13;;;;;;;0.93;0.90;;;19.50;50.30;;;;;;5016768;28;20190;-68
2023/03/10 05:47:40;;;;;;;1.00;0.95;;;19.40;50.20;;;;;;5000028;28;20187;-68
2023/03/10 05:50:08;;;;;;;0.75;0.75;;;19.40;50.20;;;;;;5009459;28;20180;-68
2023/03/10 05:52:39;;;;;;;0.77;0.77;;;19.40;50.20;;;;;;4990900;28;20294;-68
2023/03/10 05:55:10;;;;;;;0.73;0.73;;;19.50;50.30;;;;;;5009243;28;20553;-68
2023/03/10 05:57:36;;;;;;;0.90;0.90;;;19.50;50.30;;;;;;5006710;28;20176;-68
2023/03/10 06:00:04;;;;;;;0.90;0.90;;;19.50;50.30;;;;;;5000309;28;20536;-68
2023/03/10 06:02:40;;;;;;;0.90;0.90;;;19.50;50.30;;;;;;5016667;28;20214;-68
2023/03/10 06:05:11;;;;;;;0.98;0.95;;;19.40;50.30;;;;;;5009864;28;20179;-68
2023/03/10 06:07:37;;;;;;;0.90;0.90;;;19.40;50.20;;;;;;5004476;28;20191;-69
2023/03/10 06:10:04;;;;;;;0.80;0.80;;;19.40;50.30;;;;;;5004775;28;20239;-69
2023/03/10 06:12:32;;;;;;;1.15;0.80;;;19.50;50.40;;;;;;5004358;28;20685;-69
2023/03/10 06:14:58;;;;;;;1.25;1.00;;;19.40;50.30;;;;;;5001390;28;20191;-69
2023/03/10 06:17:24;;;;;;;0.80;0.80;;;19.40;50.30;;;;;;5014686;28;20273;-70
2023/03/10 06:19:51;;;;;;;2.05;1.00;;;19.40;50.30;;;;;;5028085;28;20298;-69
2023/03/10 06:22:17;;;;;;;0.90;0.90;;;19.40;50.30;;;;;;4990646;28;20261;-69
2023/03/10 06:24:44;;;;;;;0.85;0.85;;;19.40;50.40;;;;;;5014709;28;20219;-69
2023/03/10 06:27:10;;;;;;;0.70;0.70;;;19.50;50.40;;;;;;4999930;28;20184;-70
2023/03/10 06:29:36;;;;;;;1.00;0.90;;;19.40;50.40;;;;;;4979321;28;20195;-69
2023/03/10 06:32:02;;;;;;;1.00;0.90;;;19.50;50.40;;;;;;4992713;28;20222;-69
2023/03/10 06:34:28;;;;;;;1.48;0.98;;;19.50;50.40;;;;;;4987328;28;20195;-69
2023/03/10 06:36:54;;;;;;;0.90;0.90;;;19.50;50.50;;;;;;5005164;28;20192;-69
2023/03/10 06:39:21;;;;;;;1.35;1.05;;;19.50;50.40;;;;;;5003998;28;20212;-69
2023/03/10 06:41:46;;;;;;;2.20;1.10;;;19.50;50.50;;;;;;5006806;28;20199;-69
2023/03/10 06:44:17;;;;;;;1.42;0.80;;;19.50;50.50;;;;;;5007988;28;20295;-69
2023/03/10 06:46:46;;;;;;;1.05;0.90;;;19.50;50.60;;;;;;5011406;28;20184;-70
2023/03/10 06:49:13;;;;;;;0.90;0.90;;;19.50;50.60;;;;;;4995003;28;20188;-69
2023/03/10 06:51:39;;;;;;;1.13;1.00;;;19.40;50.40;;;;;;5012723;28;20211;-69
2023/03/10 06:54:05;;;;;;;2.50;0.70;;;19.50;50.50;;;;;;5001023;28;20254;-69
2023/03/10 06:56:31;;;;;;;1.25;1.00;;;19.50;50.40;;;;;;5008673;28;20211;-69
2023/03/10 06:58:58;;;;;;;1.67;1.02;;;19.50;50.40;;;;;;4997996;28;20239;-69
2023/03/10 07:01:30;;;;;;;1.17;1.08;;;19.50;50.30;;;;;;4981840;28;20660;-69
2023/03/10 07:03:58;;;;;;;1.70;0.80;;;19.60;50.40;;;;;;5058861;23;20233;-70
2023/03/10 07:06:24;;;;;;;0.88;0.75;;;19.50;50.40;;;;;;5013868;28;20179;-70
2023/03/10 07:08:52;;;;;;;1.15;0.88;;;19.60;50.50;;;;;;5047516;28;20187;-70
2023/03/10 07:11:18;;;;;;;1.15;0.80;;;19.60;50.50;;;;;;5031063;28;20217;-70
2023/03/10 07:13:43;;;;;;;1.77;0.90;;;19.60;50.50;;;;;;5030666;28;20214;-71
2023/03/10 07:16:10;;;;;;;0.82;0.82;;;19.60;50.40;;;;;;5047682;28;20575;-71
2023/03/10 07:18:35;;;;;;;1.13;1.00;;;19.70;50.50;;;;;;5014052;28;20636;-70
2023/03/10 07:21:06;;;;;;;1.17;0.90;;;19.70;50.40;;;;;;5022566;28;20184;-70
2023/03/10 07:23:33;;;;;;;2.60;0.90;;;19.70;50.50;;;;;;5047389;28;20253;-70
2023/03/10 07:25:58;;;;;;;0.80;0.80;;;19.60;50.40;;;;;;5047147;28;20183;-70
2023/03/10 07:28:25;;;;;;;1.10;0.88;;;19.60;50.40;;;;;;5047203;28;20205;-70
2023/03/10 07:30:52;;;;;;;1.60;0.90;;;19.60;50.40;;;;;;5047153;28;20190;-70
2023/03/10 07:33:18;;;;;;;1.75;0.80;;;19.60;50.50;;;;;;5046931;28;20207;-71
2023/03/10 07:35:44;;;;;;;0.88;0.80;;;19.60;51.20;;;;;;5047054;28;20241;-71
2023/03/10 07:38:10;;;;;;;0.88;0.80;;;19.60;50.60;;;;;;5030201;28;20214;-70
2023/03/10 07:40:39;;;;;;;1.48;0.90;;;19.60;50.60;;;;;;5030382;28;20195;-70
2023/03/10 07:43:05;;;;;;;1.08;0.98;;;19.60;50.60;;;;;;5046662;28;20285;-71
2023/03/10 07:45:32;;;;;;;1.17;0.90;;;19.60;50.60;;;;;;5030318;28;20248;-71
2023/03/10 07:47:58;;;;;;;1.00;0.98;;;19.60;50.60;;;;;;5047008;28;20190;-71
2023/03/10 07:50:24;;;;;;;1.08;0.93;;;19.60;50.60;;;;;;5044826;28;20262;-70
2023/03/10 07:52:50;;;;;;;0.80;0.80;;;19.60;50.60;;;;;;5029939;28;20210;-70
2023/03/10 07:55:17;;;;;;;0.90;0.85;;;19.60;51.00;;;;;;5046861;28;20193;-71
2023/03/10 07:57:43;;;;;;;0.82;0.73;;;19.60;50.60;;;;;;5046605;28;20655;-70
2023/03/10 08:00:10;;;;;;;0.90;0.80;;;19.60;50.60;;;;;;5024525;28;20198;-71
2023/03/10 08:02:40;;;;;;;0.70;0.70;;;19.60;50.60;;;;;;5040275;28;20216;-71
2023/03/10 08:05:08;;;;;;;0.77;0.77;;;19.60;50.70;;;;;;5030425;28;20274;-70
2023/03/10 08:07:34;;;;;;;0.90;0.80;;;19.60;50.60;;;;;;5030221;28;20226;-71
2023/03/10 08:10:00;;;;;;;1.95;0.90;;;19.60;50.70;;;;;;5046749;28;20291;-71
2023/03/10 08:12:26;;;;;;;0.90;0.90;;;19.60;50.60;;;;;;5046767;28;20298;-71
2023/03/10 08:14:52;;;;;;;1.48;0.70;;;19.60;50.70;;;;;;5022058;28;20658;-71
2023/03/10 08:17:18;;;;;;;0.77;0.77;;;19.60;50.70;;;;;;5023275;28;20246;-70
2023/03/10 08:19:44;;;;;;;0.90;0.80;;;19.60;50.60;;;;;;5048361;28;20282;-71
2023/03/10 08:22:11;;;;;;;1.77;0.80;;;19.60;50.70;;;;;;5050801;28;20270;-71
2023/03/10 08:24:37;;;;;;;1.17;0.90;;;19.60;50.70;;;;;;5051657;28;20218;-71
2023/03/10 08:27:04;;;;;;;0.60;0.60;;;19.60;50.70;;;;;;5051300;28;20211;-70
2023/03/10 08:29:30;;;;;;;1.35;0.70;;;19.60;50.70;;;;;;5050496;28;20245;-71
2023/03/10 08:31:56;;;;;;;0.90;0.85;;;19.60;50.70;;;;;;5050434;28;20187;-70
2023/03/10 08:34:22;;;;;;;0.70;0.70;;;19.60;50.70;;;;;;5050495;28;20214;-70
2023/03/10 08:36:48;;;;;;;1.15;0.80;;;19.60;50.70;;;;;;5049841;28;20205;-71
2023/03/10 08:39:14;;;;;;;1.00;0.70;;;19.60;50.70;;;;;;5050150;28;20211;-70
2023/03/10 08:41:47;;;;;;;0.85;0.68;;;19.60;50.70;;;;;;5050276;28;20183;-70
2023/03/10 08:44:16;;;;;;;1.55;1.00;;;19.60;50.70;;;;;;5027487;28;20234;-71
2023/03/10 08:46:48;;;;;;;0.85;0.73;;;19.60;50.70;;;;;;5032049;28;20241;-71
2023/03/10 08:49:17;;;;;;;1.08;0.80;;;19.60;50.70;;;;;;5033503;28;20584;-71
2023/03/10 08:51:43;;;;;;;1.48;0.70;;;19.60;50.70;;;;;;5049919;28;20214;-70
2023/03/10 08:54:17;;;;;;;1.88;0.70;;;19.60;50.70;;;;;;5049758;28;20588;-70
2023/03/10 08:56:43;;;;;;;1.27;0.60;;;19.60;50.70;;;;;;5033234;28;20270;-70
2023/03/10 08:59:09;;;;;;;0.70;0.70;;;19.60;50.70;;;;;;5027960;28;20379;-70
2023/03/10 09:01:36;;;;;;;0.85;0.73;;;19.60;50.70;;;;;;5028007;28;20271;-71
2023/03/10 09:04:05;;;;;;;0.60;0.60;;;19.60;50.70;;;;;;5049738;28;20211;-70
2023/03/10 09:06:31;;;;;;;0.80;0.80;;;19.60;50.70;;;;;;5032893;28;20209;-71
2023/03/10 09:08:57;;;;;;;1.02;0.70;;;19.60;50.70;;;;;;5049799;28;20244;-70
2023/03/10 09:11:30;;;;;;;0.80;0.52;;;19.60;50.70;;;;;;5025965;28;20192;-71
2023/03/10 09:13:56;;;;;;;1.05;0.77;;;19.60;50.60;;;;;;5024939;28;20207;-70
2023/03/10 09:16:23;;;;;;;0.77;0.70;;;19.70;50.70;;;;;;5032965;28;20191;-71
2023/03/10 09:18:49;;;;;;;0.60;0.60;;;19.60;50.60;;;;;;5024570;28;20216;-71
2023/03/10 09:21:18;;;;;;;0.52;0.52;;;19.70;50.60;;;;;;5016555;28;20195;-70
2023/03/10 09:23:47;;;;;;;0.82;0.60;;;19.70;50.60;;;;;;5049234;28;20231;-71
2023/03/10 09:26:14;;;;;;;1.10;0.70;;;19.70;50.60;;;;;;5049203;28;20190;-70
2023/03/10 09:28:40;;;;;;;1.80;0.70;;;19.60;51.10;;;;;;5049247;28;20284;-71
2023/03/10 09:31:07;;;;;;;0.60;0.60;;;19.60;50.60;;;;;;5048863;28;20194;-71
2023/03/10 09:33:34;;;;;;;0.57;0.57;;;19.70;50.60;;;;;;5049071;28;20206;-70
2023/03/10 09:36:02;;;;;;;0.50;0.50;;;19.60;50.60;;;;;;5032429;28;20214;-69
2023/03/10 09:38:29;;;;;;;0.60;0.60;;;19.60;50.60;;;;;;5048901;28;20207;-70
2023/03/10 09:41:27;;;;;;;0.88;0.63;;;19.60;50.60;;;;;;5048982;28;20658;-70
2023/03/10 09:44:24;;;;;;;0.55;0.55;;;19.60;50.60;;;;;;5048863;28;20209;-71
2023/03/10 09:47:05;;;;;;;0.60;0.60;;;19.60;50.60;;;;;;5048773;28;20269;-70
2023/03/10 09:49:44;;;;;;;1.58;0.75;;;19.60;50.60;;;;;;5032409;28;20194;-71
2023/03/10 09:52:45;;;;;;;0.77;0.70;;;19.60;50.60;;;;;;5032240;28;20195;-71
2023/03/10 09:55:24;;;;;;;0.68;0.68;;;19.60;50.60;;;;;;5039563;28;20575;-70
2023/03/10 09:57:54;;;;;;;0.73;0.63;;;19.60;50.60;;;;;;5047454;28;20285;-70
2023/03/10 10:00:34;;;;;;;0.70;0.70;;;19.60;50.60;;;;;;5048884;28;20187;-70
2023/03/10 10:03:19;;;;;;;0.90;0.90;;;19.60;50.60;;;;;;5015220;28;20221;-72
2023/03/10 10:05:50;;;;;;;0.68;0.68;;;19.60;50.60;;;;;;5044737;28;20191;-70
2023/03/10 10:08:53;;;;;;;1.27;0.90;;;19.60;50.60;;;;;;5048307;28;20187;-70
2023/03/10 10:11:19;;;;;;;0.47;0.47;;;19.60;50.60;;;;;;4992817;28;20195;-70
2023/03/10 10:13:45;;;;;;;0.88;0.60;;;19.60;50.60;;;;;;5048544;28;20305;-70
2023/03/10 10:16:40;;;;;;;0.47;0.47;;;19.60;50.60;;;;;;5048362;28;20271;-71
2023/03/10 10:19:22;;;;;;;1.00;0.57;;;19.60;50.60;;;;;;5008791;28;20219;-70
2023/03/10 10:22:06;;;;;;;1.10;0.60;;;19.60;50.60;;;;;;5031533;28;20184;-70
2023/03/10 10:24:32;;;;;;;0.50;0.50;;;19.60;50.60;;;;;;5048155;28;20187;-70
2023/03/10 10:26:58;;;;;;;0.70;0.70;;;19.60;50.60;;;;;;5048144;28;20195;-71
2023/03/10 10:29:35;;;;;;;0.40;0.40;;;19.60;50.60;;;;;;5048144;28;20190;-70
2023/03/10 10:32:14;;;;;;;0.60;0.50;;;19.60;50.60;;;;;;5040181;28;20191;-71
2023/03/10 10:34:43;;;;;;;0.60;0.60;;;19.60;50.70;;;;;;5048904;28;20183;-71
2023/03/10 10:37:34;;;;;;;0.63;0.63;;;19.60;50.60;;;;;;5027067;28;20187;-71
2023/03/10 10:40:00;;;;;;;0.52;0.52;;;19.60;50.60;;;;;;5048956;28;20211;-70
2023/03/10 10:42:31;;;;;;;0.75;0.50;;;19.60;50.60;;;;;;5031200;28;20219;-71
2023/03/10 10:45:21;;;;;;;0.65;0.65;;;19.60;50.50;;;;;;5023562;28;20183;-71
2023/03/10 10:47:54;;;;;;;0.45;0.40;;;19.60;50.50;;;;;;5047852;28;20187;-71
2023/03/10 10:50:30;;;;;;;0.60;0.60;;;19.60;50.50;;;;;;5048006;28;20205;-71
2023/03/10 10:53:20;;;;;;;0.70;0.70;;;19.60;50.60;;;;;;5032250;28;20218;-71
2023/03/10 10:56:00;;;;;;;0.60;0.60;;;19.60;50.60;;;;;;5010360;28;20270;-71
2023/03/10 10:58:34;;;;;;;0.98;0.60;;;19.60;50.50;;;;;;5039575;28;20233;-70
2023/03/10 11:01:14;;;;;;;0.73;0.73;;;19.60;50.50;;;;;;5047811;28;20186;-71
2023/03/10 11:03:46;;;;;;;0.60;0.60;;;19.60;50.50;;;;;;5047378;28;20255;-71
2023/03/10 11:06:31;;;;;;;0.85;0.68;;;19.70;50.60;;;;;;5030934;28;20187;-70
2023/03/10 11:09:05;;;;;;;0.70;0.70;;;19.60;50.50;;;;;;5014140;28;20266;-71
2023/03/10 11:11:38;;;;;;;0.70;0.70;;;19.60;50.50;;;;;;5030462;28;20187;-69
2023/03/10 11:14:50;;;;;;;1.45;0.50;;;19.60;50.50;;;;;;5042293;28;20202;-71
2023/03/10 11:17:46;;;;;;;0.77;0.60;;;19.60;50.60;;;;;;5029430;28;20222;-71
2023/03/10 11:20:31;;;;;;;0.60;0.60;;;19.60;50.60;;;;;;5011212;28;20212;-72
2023/03/10 11:23:23;;;;;;;0.40;0.40;;;19.60;50.60;;;;;;5025546;28;20216;-71
2023/03/10 11:26:01;;;;;;;0.60;0.60;;;19.60;50.60;;;;;;5031092;28;20271;-71
2023/03/10 11:28:58;;;;;;;3.67;1.55;;;19.70;50.70;;;;;;5025632;28;20191;-71
2023/03/10 11:31:50;;;;;;;10.52;4.50;;;19.60;50.60;;;;;;5030963;28;20241;-70
2023/03/10 11:34:34;;;;;;;20.65;8.40;;;19.60;50.60;;;;;;5039917;28;20697;-70
2023/03/10 11:37:29;;;;;;;28.35;10.85;;;19.60;50.60;;;;;;5023795;28;20190;-71
2023/03/10 11:40:18;;;;;;;35.13;12.43;;;19.60;50.60;;;;;;5046523;28;20222;-72
2023/03/10 11:43:03;;;;;;;33.22;13.32;;;19.60;50.70;;;;;;5030775;28;20257;-71
2023/03/10 11:45:53;;;;;;;41.47;16.58;;;19.70;50.70;;;;;;5018558;28;20211;-70
2023/03/10 11:48:55;;;;;;;53.30;20.70;;;19.60;50.70;;;;;;5044569;28;20195;-71
2023/03/10 11:51:45;;;;;;;56.72;22.02;;;19.60;50.70;;;;;;5046723;28;20195;-71
2023/03/10 11:54:34;;;;;;;56.35;21.65;;;19.70;50.80;;;;;;5031241;28;20214;-71
2023/03/10 11:57:12;;;;;;;62.80;24.48;;;19.60;50.60;;;;;;5026016;28;20195;-70
2023/03/10 11:59:51;;;;;;;69.25;24.73;;;19.60;50.60;;;;;;5050459;28;20206;-70
2023/03/10 12:02:37;;;;;;;65.03;26.15;;;19.60;50.70;;;;;;5016801;28;20213;-71
2023/03/10 12:05:14;;;;;;;72.70;27.92;;;19.60;50.70;;;;;;5051550;28;20179;-70
2023/03/10 12:07:45;;;;;;;78.40;31.48;;;19.60;50.70;;;;;;5051703;28;20596;-71
2023/03/10 12:10:11;;;;;;;68.78;28.40;;;19.60;50.80;;;;;;5051660;28;20183;-71
2023/03/10 12:12:43;;;;;;;71.85;29.55;;;19.60;50.70;;;;;;5032262;28;20580;-70
2023/03/10 12:15:22;;;;;;;76.03;30.77;;;19.60;50.80;;;;;;5043960;28;20190;-70
2023/03/10 12:17:51;;;;;;;83.72;31.83;;;19.60;50.70;;;;;;5018414;28;20655;-71
2023/03/10 12:20:17;;;;;;;78.93;31.58;;;19.60;50.70;;;;;;5051657;28;20253;-70
2023/03/10 12:22:51;;;;;;;90.97;35.13;;;19.60;50.70;;;;;;5026885;28;20207;-71
2023/03/10 12:25:28;;;;;;;97.35;37.53;;;19.60;50.80;;;;;;5051370;28;20191;-71
2023/03/10 12:28:16;;;;;;;102.88;37.92;;;19.60;50.70;;;;;;5034960;28;20215;-72
2023/03/10 12:30:57;;;;;;;93.43;36.78;;;19.60;50.70;;;;;;5034939;28;20281;-71
2023/03/10 12:33:41;;;;;;;108.78;40.70;;;19.60;50.70;;;;;;5037987;28;20210;-71
2023/03/10 12:36:34;;;;;;;96.25;37.30;;;19.60;50.70;;;;;;5027599;28;20266;-70
2023/03/10 12:39:30;;;;;;;93.80;37.67;;;19.60;50.70;;;;;;5032103;28;20558;-71
2023/03/10 12:42:02;;;;;;;97.28;38.20;;;19.60;50.70;;;;;;5033650;28;20187;-69
2023/03/10 12:45:00;;;;;;;108.70;43.28;;;19.70;50.80;;;;;;5028431;28;20261;-71
2023/03/10 12:48:02;;;;;;;109.55;42.47;;;19.70;50.80;;;;;;5025983;28;20184;-70
2023/03/10 12:50:45;;;;;;;96.57;39.72;;;19.60;50.70;;;;;;5032080;28;20256;-70
2023/03/10 12:53:27;;;;;;;102.95;41.05;;;19.60;50.70;;;;;;5048069;28;20209;-70
2023/03/10 12:56:11;;;;;;;101.95;41.28;;;19.60;50.70;;;;;;5040699;28;20191;-71
2023/03/10 12:58:42;;;;;;;107.35;42.67;;;19.60;50.70;;;;;;5038285;28;20617;-70
2023/03/10 13:01:15;;;;;;;114.20;43.35;;;19.60;51.30;;;;;;5050085;28;20215;-71
2023/03/10 13:03:54;;;;;;;114.85;45.83;;;19.60;50.70;;;;;;5049856;28;20219;-71